createdAt,value
2023-04-02T00:00:12.069Z,98.86
2023-04-02T00:01:12.009Z,98.80
2023-04-02T00:02:12.050Z,98.29
2023-04-02T00:03:12.032Z,98.50
2023-04-02T00:04:12.150Z,99.42
2023-04-02T00:05:11.991Z,98.91
2023-04-02T00:06:12.004Z,99.01
2023-04-02T00:07:11.981Z,98.24
2023-04-02T00:08:12.004Z,98.91
2023-04-02T00:09:11.973Z,99.37
2023-04-02T00:10:11.957Z,98.44
2023-04-02T00:11:11.989Z,98.54
2023-04-02T00:12:11.937Z,98.13
2023-04-02T00:13:11.951Z,98.39
2023-04-02T00:14:11.916Z,97.99
2023-04-02T00:15:11.915Z,98.96
2023-04-02T00:16:12.040Z,98.75
2023-04-02T00:17:11.926Z,98.44
2023-04-02T00:18:11.904Z,98.44
2023-04-02T00:19:11.899Z,98.33
2023-04-02T00:20:11.935Z,99.05
2023-04-02T00:21:11.941Z,98.24
2023-04-02T00:22:11.912Z,99.10
2023-04-02T00:23:11.883Z,98.44
2023-04-02T00:24:11.892Z,98.44
2023-04-02T00:25:11.869Z,98.85
2023-04-02T00:26:11.874Z,98.33
2023-04-02T00:27:11.863Z,98.49
2023-04-02T00:28:11.849Z,98.18
2023-04-02T00:29:11.855Z,98.28
2023-04-02T00:30:11.838Z,99.10
2023-04-02T00:31:11.853Z,98.28
2023-04-02T00:32:11.944Z,98.59
2023-04-02T00:33:11.869Z,98.49
2023-04-02T00:34:11.815Z,99.00
2023-04-02T00:35:11.808Z,98.90
2023-04-02T00:36:11.840Z,99.10
2023-04-02T00:37:11.852Z,98.49
2023-04-02T00:38:11.798Z,99.05
2023-04-02T00:39:11.797Z,99.00
2023-04-02T00:40:11.777Z,99.56
2023-04-02T00:41:11.791Z,98.63
2023-04-02T00:42:11.803Z,98.94
2023-04-02T00:43:11.764Z,99.15
2023-04-02T00:44:11.796Z,98.84
2023-04-02T00:45:11.777Z,99.25
2023-04-02T00:46:11.781Z,99.15
2023-04-02T00:47:11.757Z,98.63
2023-04-02T00:48:11.768Z,98.33
2023-04-02T00:49:11.744Z,98.74
2023-04-02T00:50:11.785Z,99.05
2023-04-02T00:51:11.819Z,98.84
2023-04-02T00:52:11.748Z,98.47
2023-04-02T00:53:11.778Z,99.25
2023-04-02T00:54:11.733Z,98.63
2023-04-02T00:55:11.727Z,98.68
2023-04-02T00:56:11.730Z,98.58
2023-04-02T00:57:11.751Z,98.79
2023-04-02T00:58:11.723Z,98.72
2023-04-02T00:59:11.699Z,99.09
2023-04-02T01:00:11.726Z,98.58
2023-04-02T01:01:11.790Z,98.62
2023-04-02T01:02:11.714Z,98.93
2023-04-02T01:03:11.795Z,98.83
2023-04-02T01:04:11.708Z,98.52
2023-04-02T01:05:11.702Z,99.76
2023-04-02T01:06:11.696Z,98.93
2023-04-02T01:07:11.683Z,99.24
2023-04-02T01:08:11.678Z,99.24
2023-04-02T01:09:11.700Z,98.42
2023-04-02T01:10:11.640Z,99.24
2023-04-02T01:11:11.636Z,98.83
2023-04-02T01:12:11.648Z,98.93
2023-04-02T01:13:11.628Z,98.83
2023-04-02T01:14:11.675Z,98.83
2023-04-02T01:15:11.645Z,99.04
2023-04-02T01:16:11.699Z,98.93
2023-04-02T01:17:11.616Z,98.11
2023-04-02T01:18:11.599Z,98.00
2023-04-02T01:19:11.652Z,98.00
2023-04-02T01:20:11.594Z,98.21
2023-04-02T01:21:11.608Z,98.62
2023-04-02T01:22:11.589Z,98.25
2023-04-02T01:23:11.579Z,98.05
2023-04-02T01:24:11.604Z,98.00
2023-04-02T01:25:11.647Z,98.21
2023-04-02T01:26:12.314Z,97.95
2023-04-02T01:27:11.585Z,97.85
2023-04-02T01:28:11.568Z,97.85
2023-04-02T01:29:11.565Z,97.95
2023-04-02T01:30:11.582Z,97.85
2023-04-02T01:31:11.589Z,98.15
2023-04-02T01:32:11.577Z,97.74
2023-04-02T01:33:11.539Z,97.64
2023-04-02T01:34:11.578Z,98.05
2023-04-02T01:35:11.546Z,98.25
2023-04-02T01:36:11.595Z,97.85
2023-04-02T01:37:11.962Z,97.85
2023-04-02T01:38:11.538Z,97.64
2023-04-02T01:39:11.560Z,97.64
2023-04-02T01:40:11.525Z,97.68
2023-04-02T01:41:11.497Z,97.33
2023-04-02T01:42:11.525Z,97.53
2023-04-02T01:43:11.502Z,97.43
2023-04-02T01:44:11.501Z,97.38
2023-04-02T01:45:11.492Z,97.78
2023-04-02T01:46:11.532Z,97.68
2023-04-02T01:47:11.481Z,97.99
2023-04-02T01:48:11.481Z,97.38
2023-04-02T01:49:11.451Z,97.48
2023-04-02T01:50:11.531Z,96.96
2023-04-02T01:51:12.074Z,96.92
2023-04-02T01:52:11.450Z,96.92
2023-04-02T01:53:11.467Z,97.17
2023-04-02T01:54:11.483Z,97.06
2023-04-02T01:55:11.428Z,96.96
2023-04-02T01:56:11.480Z,96.92
2023-04-02T01:57:11.477Z,96.96
2023-04-02T01:58:11.486Z,97.17
2023-04-02T01:59:11.439Z,97.27
2023-04-02T02:00:11.423Z,96.91
2023-04-02T02:01:11.477Z,97.52
2023-04-02T02:02:11.448Z,97.31
2023-04-02T02:03:11.394Z,97.38
2023-04-02T02:04:11.417Z,97.31
2023-04-02T02:05:11.394Z,96.91
2023-04-02T02:06:11.400Z,97.83
2023-04-02T02:07:11.380Z,97.73
2023-04-02T02:08:11.383Z,97.52
2023-04-02T02:09:11.368Z,97.52
2023-04-02T02:10:11.382Z,96.75
2023-04-02T02:11:11.361Z,97.52
2023-04-02T02:12:11.346Z,97.42
2023-04-02T02:13:11.349Z,97.01
2023-04-02T02:14:11.384Z,97.21
2023-04-02T02:15:11.363Z,97.11
2023-04-02T02:16:11.347Z,96.91
2023-04-02T02:17:11.322Z,97.11
2023-04-02T02:18:11.355Z,97.01
2023-04-02T02:19:12.342Z,97.42
2023-04-02T02:20:11.365Z,97.31
2023-04-02T02:21:12.330Z,96.64
2023-04-02T02:22:11.307Z,97.36
2023-04-02T02:23:11.322Z,97.05
2023-04-02T02:24:11.307Z,97.31
2023-04-02T02:25:11.319Z,97.36
2023-04-02T02:26:11.283Z,97.21
2023-04-02T02:27:11.292Z,96.80
2023-04-02T02:28:11.270Z,96.70
2023-04-02T02:29:11.265Z,96.74
2023-04-02T02:30:11.329Z,96.53
2023-04-02T02:31:11.295Z,97.26
2023-04-02T02:32:11.335Z,97.56
2023-04-02T02:33:11.274Z,97.47
2023-04-02T02:34:11.246Z,97.26
2023-04-02T02:35:11.276Z,96.95
2023-04-02T02:36:11.283Z,97.42
2023-04-02T02:37:11.255Z,97.47
2023-04-02T02:38:11.234Z,97.31
2023-04-02T02:39:11.214Z,95.92
2023-04-02T02:40:11.212Z,96.02
2023-04-02T02:41:11.245Z,96.74
2023-04-02T02:42:11.200Z,96.64
2023-04-02T02:43:11.213Z,96.95
2023-04-02T02:44:11.199Z,96.64
2023-04-02T02:45:11.204Z,96.02
2023-04-02T02:46:11.266Z,96.53
2023-04-02T02:47:11.181Z,95.81
2023-04-02T02:48:11.170Z,96.23
2023-04-02T02:49:11.151Z,96.53
2023-04-02T02:50:11.174Z,96.53
2023-04-02T02:51:11.527Z,97.36
2023-04-02T02:52:11.216Z,97.30
2023-04-02T02:53:11.168Z,97.51
2023-04-02T02:54:11.175Z,96.89
2023-04-02T02:55:11.177Z,97.41
2023-04-02T02:56:11.138Z,97.09
2023-04-02T02:57:11.216Z,97.61
2023-04-02T02:58:11.168Z,96.79
2023-04-02T02:59:11.135Z,96.33
2023-04-02T03:00:11.113Z,96.33
2023-04-02T03:01:11.123Z,95.96
2023-04-02T03:02:11.163Z,96.69
2023-04-02T03:03:11.256Z,96.27
2023-04-02T03:04:11.153Z,96.44
2023-04-02T03:05:11.097Z,96.06
2023-04-02T03:06:11.091Z,96.58
2023-04-02T03:07:11.143Z,97.30
2023-04-02T03:08:11.124Z,96.37
2023-04-02T03:09:11.081Z,96.89
2023-04-02T03:10:11.080Z,96.79
2023-04-02T03:11:11.094Z,96.83
2023-04-02T03:12:11.061Z,96.62
2023-04-02T03:13:11.068Z,96.79
2023-04-02T03:14:11.037Z,96.52
2023-04-02T03:15:11.052Z,96.94
2023-04-02T03:16:11.044Z,96.94
2023-04-02T03:17:11.080Z,97.09
2023-04-02T03:18:11.063Z,97.20
2023-04-02T03:19:11.008Z,95.65
2023-04-02T03:20:11.018Z,95.96
2023-04-02T03:21:11.039Z,95.86
2023-04-02T03:22:11.005Z,95.90
2023-04-02T03:23:11.021Z,96.11
2023-04-02T03:24:11.024Z,96.62
2023-04-02T03:25:10.981Z,96.83
2023-04-02T03:26:10.991Z,96.21
2023-04-02T03:27:10.984Z,96.11
2023-04-02T03:28:11.023Z,96.73
2023-04-02T03:29:10.979Z,96.62
2023-04-02T03:30:11.004Z,97.55
2023-04-02T03:31:10.963Z,97.08
2023-04-02T03:32:10.971Z,97.39
2023-04-02T03:33:10.948Z,96.83
2023-04-02T03:34:10.973Z,96.52
2023-04-02T03:35:10.966Z,96.83
2023-04-02T03:36:10.950Z,96.47
2023-04-02T03:37:10.954Z,96.62
2023-04-02T03:38:10.926Z,96.83
2023-04-02T03:39:10.942Z,97.04
2023-04-02T03:40:10.957Z,95.95
2023-04-02T03:41:10.917Z,97.50
2023-04-02T03:42:10.893Z,96.77
2023-04-02T03:43:10.911Z,96.67
2023-04-02T03:44:10.917Z,96.72
2023-04-02T03:45:10.880Z,96.56
2023-04-02T03:46:10.963Z,96.88
2023-04-02T03:47:10.880Z,97.50
2023-04-02T03:48:10.867Z,97.60
2023-04-02T03:49:10.897Z,97.29
2023-04-02T03:50:10.889Z,96.88
2023-04-02T03:51:10.864Z,96.92
2023-04-02T03:52:10.970Z,97.71
2023-04-02T03:53:10.840Z,97.50
2023-04-02T03:54:10.855Z,97.39
2023-04-02T03:55:10.888Z,96.77
2023-04-02T03:56:10.847Z,96.77
2023-04-02T03:57:10.858Z,96.67
2023-04-02T03:58:10.812Z,96.88
2023-04-02T03:59:10.825Z,96.92
2023-04-02T04:00:10.812Z,97.29
2023-04-02T04:01:10.851Z,97.19
2023-04-02T04:02:10.779Z,97.08
2023-04-02T04:03:10.833Z,96.20
2023-04-02T04:04:10.872Z,96.41
2023-04-02T04:05:10.770Z,96.88
2023-04-02T04:06:10.804Z,96.92
2023-04-02T04:07:10.802Z,97.44
2023-04-02T04:08:10.767Z,97.54
2023-04-02T04:09:10.773Z,97.44
2023-04-02T04:10:10.744Z,97.33
2023-04-02T04:11:10.809Z,96.61
2023-04-02T04:12:10.775Z,96.72
2023-04-02T04:13:10.730Z,97.23
2023-04-02T04:14:10.716Z,96.55
2023-04-02T04:15:10.716Z,97.38
2023-04-02T04:16:10.738Z,97.38
2023-04-02T04:17:10.754Z,97.17
2023-04-02T04:18:10.696Z,96.97
2023-04-02T04:19:11.207Z,96.51
2023-04-02T04:20:10.689Z,95.83
2023-04-02T04:21:10.690Z,95.99
2023-04-02T04:22:10.727Z,96.76
2023-04-02T04:23:10.683Z,97.59
2023-04-02T04:24:10.698Z,96.82
2023-04-02T04:25:10.697Z,96.82
2023-04-02T04:26:10.658Z,96.20
2023-04-02T04:27:10.681Z,96.20
2023-04-02T04:28:10.702Z,96.55
2023-04-02T04:29:10.683Z,97.17
2023-04-02T04:30:10.643Z,97.59
2023-04-02T04:31:10.650Z,96.97
2023-04-02T04:32:10.701Z,95.99
2023-04-02T04:33:10.663Z,95.78
2023-04-02T04:34:10.642Z,96.03
2023-04-02T04:35:10.623Z,95.83
2023-04-02T04:36:10.624Z,96.03
2023-04-02T04:37:10.610Z,96.14
2023-04-02T04:38:10.626Z,96.97
2023-04-02T04:39:10.616Z,97.49
2023-04-02T04:40:10.597Z,96.34
2023-04-02T04:41:10.644Z,97.17
2023-04-02T04:42:10.577Z,96.45
2023-04-02T04:43:10.610Z,96.03
2023-04-02T04:44:10.555Z,96.55
2023-04-02T04:45:10.579Z,96.03
2023-04-02T04:46:10.608Z,95.94
2023-04-02T04:47:10.552Z,95.73
2023-04-02T04:48:10.572Z,95.62
2023-04-02T04:49:10.546Z,95.62
2023-04-02T04:50:10.548Z,95.73
2023-04-02T04:51:10.544Z,95.62
2023-04-02T04:52:10.527Z,95.52
2023-04-02T04:53:10.497Z,95.83
2023-04-02T04:54:10.526Z,95.42
2023-04-02T04:55:10.518Z,95.83
2023-04-02T04:56:18.838Z,95.62
2023-04-02T04:57:12.501Z,95.52
2023-04-02T04:58:10.504Z,95.94
2023-04-02T04:59:10.513Z,95.52
2023-04-02T05:00:10.462Z,96.03
2023-04-02T05:01:10.528Z,95.52
2023-04-02T05:02:10.481Z,96.45
2023-04-02T05:03:10.477Z,95.94
2023-04-02T05:04:10.482Z,95.31
2023-04-02T05:05:10.449Z,96.34
2023-04-02T05:06:10.460Z,96.29
2023-04-02T05:07:10.481Z,95.67
2023-04-02T05:08:10.419Z,95.62
2023-04-02T05:09:10.499Z,95.83
2023-04-02T05:10:10.436Z,95.73
2023-04-02T05:11:10.397Z,95.62
2023-04-02T05:12:10.430Z,95.52
2023-04-02T05:13:10.426Z,95.21
2023-04-02T05:14:10.406Z,94.79
2023-04-02T05:15:10.517Z,94.59
2023-04-02T05:16:10.429Z,95.10
2023-04-02T05:17:10.404Z,95.25
2023-04-02T05:18:10.385Z,95.04
2023-04-02T05:19:10.356Z,95.10
2023-04-02T05:20:10.357Z,95.83
2023-04-02T05:21:10.382Z,95.73
2023-04-02T05:22:10.351Z,95.83
2023-04-02T05:23:10.359Z,95.46
2023-04-02T05:24:10.328Z,95.36
2023-04-02T05:25:10.360Z,95.46
2023-04-02T05:26:10.348Z,95.36
2023-04-02T05:27:10.308Z,95.46
2023-04-02T05:28:10.355Z,96.49
2023-04-02T05:29:10.321Z,95.98
2023-04-02T05:30:10.322Z,96.19
2023-04-02T05:31:10.365Z,95.92
2023-04-02T05:32:10.296Z,95.61
2023-04-02T05:33:10.351Z,95.81
2023-04-02T05:34:10.366Z,96.12
2023-04-02T05:35:10.309Z,96.19
2023-04-02T05:36:10.304Z,96.76
2023-04-02T05:37:10.283Z,96.59
2023-04-02T05:38:10.309Z,96.08
2023-04-02T05:39:10.290Z,95.67
2023-04-02T05:40:10.294Z,95.67
2023-04-02T05:41:10.279Z,95.04
2023-04-02T05:42:10.234Z,95.25
2023-04-02T05:43:10.264Z,95.77
2023-04-02T05:44:10.268Z,96.49
2023-04-02T05:45:10.234Z,95.56
2023-04-02T05:46:10.292Z,95.15
2023-04-02T05:47:10.215Z,95.50
2023-04-02T05:48:10.217Z,95.19
2023-04-02T05:49:10.232Z,95.40
2023-04-02T05:50:10.197Z,95.54
2023-04-02T05:51:10.195Z,96.44
2023-04-02T05:52:10.188Z,97.26
2023-04-02T05:53:10.185Z,96.23
2023-04-02T05:54:10.188Z,96.44
2023-04-02T05:55:10.226Z,95.81
2023-04-02T05:56:10.211Z,96.23
2023-04-02T05:57:10.199Z,95.71
2023-04-02T05:59:11.150Z,95.29
2023-04-02T06:00:10.158Z,95.71
2023-04-02T06:01:10.175Z,95.81
2023-04-02T06:02:10.169Z,95.40
2023-04-02T06:03:10.225Z,95.29
2023-04-02T06:04:10.268Z,95.81
2023-04-02T06:05:10.143Z,95.19
2023-04-02T06:06:10.161Z,95.61
2023-04-02T06:07:10.131Z,95.50
2023-04-02T06:08:11.127Z,94.68
2023-04-02T06:09:10.114Z,94.98
2023-04-02T06:10:10.112Z,95.19
2023-04-02T06:11:10.097Z,94.57
2023-04-02T06:12:10.102Z,94.78
2023-04-02T06:13:10.078Z,95.65
2023-04-02T06:14:10.081Z,94.93
2023-04-02T06:15:10.069Z,94.41
2023-04-02T06:16:10.132Z,94.47
2023-04-02T06:17:10.072Z,94.62
2023-04-02T06:18:10.092Z,95.54
2023-04-02T06:19:10.093Z,94.68
2023-04-02T06:20:10.034Z,94.89
2023-04-02T06:21:10.051Z,94.47
2023-04-02T06:22:10.030Z,94.06
2023-04-02T06:23:10.043Z,94.10
2023-04-02T06:24:10.008Z,94.20
2023-04-02T06:25:10.012Z,94.31
2023-04-02T06:26:09.993Z,94.31
2023-04-02T06:27:09.996Z,94.26
2023-04-02T06:28:10.017Z,93.79
2023-04-02T06:29:10.004Z,93.68
2023-04-02T06:30:09.974Z,94.20
2023-04-02T06:31:10.001Z,94.31
2023-04-02T06:32:09.959Z,94.93
2023-04-02T06:33:09.980Z,94.41
2023-04-02T06:34:09.961Z,94.41
2023-04-02T06:35:09.945Z,94.51
2023-04-02T06:36:09.955Z,94.93
2023-04-02T06:37:09.936Z,94.93
2023-04-02T06:38:09.967Z,94.72
2023-04-02T06:39:09.960Z,94.72
2023-04-02T06:40:09.903Z,94.72
2023-04-02T06:41:09.905Z,94.62
2023-04-02T06:42:09.903Z,95.34
2023-04-02T06:43:09.925Z,95.24
2023-04-02T06:44:09.931Z,94.93
2023-04-02T06:45:09.949Z,94.20
2023-04-02T06:46:09.930Z,94.41
2023-04-02T06:47:09.891Z,94.41
2023-04-02T06:48:09.941Z,94.26
2023-04-02T06:49:09.833Z,94.57
2023-04-02T06:50:09.876Z,94.41
2023-04-02T06:51:09.871Z,94.62
2023-04-02T06:52:09.835Z,95.54
2023-04-02T06:53:09.840Z,95.03
2023-04-02T06:54:09.816Z,94.41
2023-04-02T06:55:09.873Z,94.31
2023-04-02T06:56:09.830Z,93.99
2023-04-02T06:57:09.862Z,93.89
2023-04-02T06:58:09.822Z,94.72
2023-04-02T06:59:09.838Z,93.21
2023-04-02T07:00:09.819Z,93.73
2023-04-02T07:01:09.835Z,94.24
2023-04-02T07:02:09.791Z,94.35
2023-04-02T07:03:09.807Z,94.87
2023-04-02T07:04:09.773Z,94.56
2023-04-02T07:05:09.810Z,94.14
2023-04-02T07:06:09.779Z,94.35
2023-04-02T07:07:09.758Z,94.97
2023-04-02T07:08:09.765Z,93.56
2023-04-02T07:09:09.728Z,93.41
2023-04-02T07:10:10.745Z,93.62
2023-04-02T07:11:09.785Z,93.21
2023-04-02T07:12:09.723Z,93.52
2023-04-02T07:13:09.757Z,93.21
2023-04-02T07:14:09.778Z,93.10
2023-04-02T07:15:09.708Z,93.46
2023-04-02T07:16:09.769Z,92.94
2023-04-02T07:17:09.704Z,93.04
2023-04-02T07:18:09.715Z,93.25
2023-04-02T07:19:09.694Z,93.77
2023-04-02T07:20:09.692Z,93.87
2023-04-02T07:21:09.647Z,92.63
2023-04-02T07:22:09.657Z,92.94
2023-04-02T07:23:09.645Z,92.94
2023-04-02T07:24:09.662Z,93.41
2023-04-02T07:25:09.641Z,93.04
2023-04-02T07:26:09.628Z,92.84
2023-04-02T07:27:09.644Z,93.15
2023-04-02T07:28:09.640Z,93.15
2023-04-02T07:29:09.656Z,93.25
2023-04-02T07:30:09.604Z,92.94
2023-04-02T07:31:09.632Z,93.25
2023-04-02T07:32:09.606Z,93.15
2023-04-02T07:33:09.620Z,93.15
2023-04-02T07:34:09.613Z,92.22
2023-04-02T07:35:09.590Z,92.74
2023-04-02T07:36:09.600Z,92.94
2023-04-02T07:37:09.643Z,93.25
2023-04-02T07:38:09.554Z,93.35
2023-04-02T07:39:09.579Z,93.35
2023-04-02T07:40:09.557Z,92.94
2023-04-02T07:41:09.563Z,92.84
2023-04-02T07:42:09.564Z,92.94
2023-04-02T07:43:09.556Z,93.25
2023-04-02T07:44:09.591Z,93.56
2023-04-02T07:45:09.544Z,93.56
2023-04-02T07:46:09.565Z,93.46
2023-04-02T07:47:09.485Z,93.35
2023-04-02T07:48:09.581Z,93.04
2023-04-02T07:49:09.505Z,93.15
2023-04-02T07:50:09.481Z,93.46
2023-04-02T07:51:09.455Z,93.15
2023-04-02T07:52:09.470Z,93.15
2023-04-02T07:53:09.553Z,93.04
2023-04-02T07:54:09.509Z,92.84
2023-04-02T07:55:09.481Z,92.94
2023-04-02T07:56:09.476Z,92.94
2023-04-02T07:57:09.495Z,92.90
2023-04-02T07:58:09.421Z,92.49
2023-04-02T07:59:09.430Z,91.60
2023-04-02T08:00:09.406Z,91.08
2023-04-02T08:01:09.454Z,91.70
2023-04-02T08:02:09.444Z,91.60
2023-04-02T08:03:09.458Z,92.43
2023-04-02T08:04:09.412Z,92.16
2023-04-02T08:05:09.377Z,92.84
2023-04-02T08:06:09.392Z,93.04
2023-04-02T08:07:09.384Z,92.84
2023-04-02T08:08:09.363Z,92.01
2023-04-02T08:09:09.481Z,92.28
2023-04-02T08:10:09.409Z,91.18
2023-04-02T08:11:09.338Z,92.43
2023-04-02T08:12:09.365Z,91.91
2023-04-02T08:13:09.344Z,92.01
2023-04-02T08:14:09.324Z,92.22
2023-04-02T08:15:09.340Z,91.91
2023-04-02T08:16:09.384Z,91.49
2023-04-02T08:17:09.328Z,92.94
2023-04-02T08:18:09.350Z,92.53
2023-04-02T08:19:09.291Z,92.53
2023-04-02T08:20:09.298Z,92.22
2023-04-02T08:21:09.305Z,92.74
2023-04-02T08:22:09.310Z,92.59
2023-04-02T08:23:09.279Z,92.22
2023-04-02T08:24:09.268Z,92.28
2023-04-02T08:25:09.274Z,91.76
2023-04-02T08:26:09.286Z,91.66
2023-04-02T08:27:10.246Z,91.97
2023-04-02T08:28:09.251Z,91.80
2023-04-02T08:29:09.243Z,91.70
2023-04-02T08:30:09.237Z,91.18
2023-04-02T08:31:09.353Z,91.76
2023-04-02T08:32:09.222Z,91.18
2023-04-02T08:33:09.318Z,90.93
2023-04-02T08:34:09.234Z,90.83
2023-04-02T08:35:09.239Z,91.45
2023-04-02T08:36:09.232Z,91.49
2023-04-02T08:37:09.217Z,90.97
2023-04-02T08:38:09.190Z,91.49
2023-04-02T08:39:09.219Z,91.91
2023-04-02T08:40:09.181Z,91.08
2023-04-02T08:41:09.173Z,91.08
2023-04-02T08:42:09.190Z,92.11
2023-04-02T08:43:09.182Z,92.49
2023-04-02T08:44:09.175Z,91.18
2023-04-02T08:45:23.063Z,90.52
2023-04-02T08:46:11.151Z,91.45
2023-04-02T08:47:09.129Z,91.24
2023-04-02T08:48:09.189Z,91.03
2023-04-02T08:49:09.159Z,90.10
2023-04-02T08:50:09.092Z,90.45
2023-04-02T08:51:09.173Z,90.83
2023-04-02T08:52:10.095Z,90.83
2023-04-02T08:53:09.098Z,90.72
2023-04-02T08:54:09.088Z,91.60
2023-04-02T08:55:09.070Z,91.39
2023-04-02T08:56:09.059Z,91.35
2023-04-02T08:57:09.151Z,91.45
2023-04-02T08:58:09.181Z,91.91
2023-04-02T08:59:09.076Z,91.80
2023-04-02T09:00:09.054Z,91.76
2023-04-02T09:01:09.034Z,90.97
2023-04-02T09:02:09.045Z,91.66
2023-04-02T09:03:09.073Z,91.80
2023-04-02T09:04:09.047Z,91.80
2023-04-02T09:05:09.305Z,92.63
2023-04-02T09:06:09.004Z,92.94
2023-04-02T09:07:08.988Z,92.74
2023-04-02T09:08:09.000Z,92.43
2023-04-02T09:09:08.982Z,93.08
2023-04-02T09:10:09.011Z,93.60
2023-04-02T09:11:08.997Z,93.35
2023-04-02T09:12:08.957Z,93.19
2023-04-02T09:13:08.991Z,93.77
2023-04-02T09:14:08.932Z,93.46
2023-04-02T09:15:08.960Z,93.56
2023-04-02T09:16:08.966Z,92.94
2023-04-02T09:17:08.932Z,92.98
2023-04-02T09:18:08.949Z,93.08
2023-04-02T09:19:08.904Z,93.15
2023-04-02T09:20:08.952Z,93.66
2023-04-02T09:21:08.920Z,93.56
2023-04-02T09:22:08.996Z,93.25
2023-04-02T09:23:08.897Z,92.84
2023-04-02T09:24:08.893Z,93.04
2023-04-02T09:25:08.954Z,92.32
2023-04-02T09:26:08.927Z,92.11
2023-04-02T09:27:08.910Z,90.70
2023-04-02T09:28:08.868Z,92.53
2023-04-02T09:29:08.848Z,91.80
2023-04-02T09:30:08.857Z,92.53
2023-04-02T09:31:08.936Z,91.66
2023-04-02T09:32:08.842Z,91.35
2023-04-02T09:33:08.911Z,92.18
2023-04-02T09:34:08.841Z,91.39
2023-04-02T09:35:18.433Z,91.49
2023-04-02T09:36:10.886Z,91.39
2023-04-02T09:37:08.815Z,90.56
2023-04-02T09:38:08.818Z,91.60
2023-04-02T09:39:08.806Z,91.70
2023-04-02T09:40:08.803Z,92.32
2023-04-02T09:41:08.812Z,92.07
2023-04-02T09:42:09.778Z,90.56
2023-04-02T09:43:08.784Z,90.93
2023-04-02T09:44:08.760Z,91.03
2023-04-02T09:45:08.756Z,90.93
2023-04-02T09:46:08.801Z,91.18
2023-04-02T09:47:08.767Z,90.97
2023-04-02T09:48:08.801Z,90.41
2023-04-02T09:49:08.774Z,92.22
2023-04-02T09:50:08.749Z,92.28
2023-04-02T09:51:08.735Z,90.72
2023-04-02T09:52:08.897Z,90.00
2023-04-02T09:53:08.732Z,89.79
2023-04-02T09:54:08.712Z,90.00
2023-04-02T09:55:08.715Z,91.30
2023-04-02T09:56:08.679Z,91.05
2023-04-02T09:57:08.772Z,91.61
2023-04-02T09:58:08.696Z,91.93
2023-04-02T09:59:08.686Z,91.30
2023-04-02T10:00:12.259Z,89.79
2023-04-02T10:01:10.714Z,89.79
2023-04-02T10:02:08.653Z,89.69
2023-04-02T10:03:08.670Z,89.69
2023-04-02T10:04:08.768Z,89.79
2023-04-02T10:05:08.614Z,90.31
2023-04-02T10:06:08.631Z,89.79
2023-04-02T10:07:08.624Z,89.94
2023-04-02T10:08:08.665Z,90.41
2023-04-02T10:09:08.594Z,90.00
2023-04-02T10:10:09.622Z,90.10
2023-04-02T10:11:08.609Z,90.20
2023-04-02T10:12:08.619Z,88.76
2023-04-02T10:13:08.574Z,88.86
2023-04-02T10:14:08.580Z,88.86
2023-04-02T10:15:08.658Z,89.48
2023-04-02T10:16:08.631Z,88.86
2023-04-02T10:17:08.614Z,88.61
2023-04-02T10:18:08.583Z,88.55
2023-04-02T10:19:08.560Z,88.45
2023-04-02T10:20:08.583Z,88.65
2023-04-02T10:21:08.625Z,89.00
2023-04-02T10:22:08.547Z,90.00
2023-04-02T10:23:08.592Z,90.62
2023-04-02T10:24:08.588Z,88.79
2023-04-02T10:25:08.576Z,89.73
2023-04-02T10:26:08.560Z,88.96
2023-04-02T10:27:08.614Z,88.45
2023-04-02T10:28:08.693Z,88.13
2023-04-02T10:29:08.542Z,88.45
2023-04-02T10:30:08.504Z,88.34
2023-04-02T10:31:08.529Z,88.39
2023-04-02T10:32:08.514Z,88.48
2023-04-02T10:33:08.523Z,88.07
2023-04-02T10:34:08.463Z,88.07
2023-04-02T10:35:08.524Z,88.59
2023-04-02T10:36:08.572Z,88.18
2023-04-02T10:37:08.452Z,88.07
2023-04-02T10:38:08.502Z,88.34
2023-04-02T10:39:08.476Z,87.55
2023-04-02T10:40:08.433Z,86.93
2023-04-02T10:41:08.690Z,87.45
2023-04-02T10:42:08.435Z,87.66
2023-04-02T10:43:09.241Z,87.14
2023-04-02T10:44:18.946Z,88.90
2023-04-02T10:45:10.412Z,88.39
2023-04-02T10:46:08.497Z,86.45
2023-04-02T10:47:08.396Z,88.39
2023-04-02T10:48:08.408Z,87.59
2023-04-02T10:49:08.407Z,87.76
2023-04-02T10:50:08.402Z,87.55
2023-04-02T10:51:08.410Z,87.35
2023-04-02T10:52:08.361Z,87.93
2023-04-02T10:53:08.388Z,87.62
2023-04-02T10:54:08.363Z,87.20
2023-04-02T10:55:08.379Z,86.10
2023-04-02T10:56:08.462Z,86.41
2023-04-02T10:57:08.376Z,87.45
2023-04-02T10:58:08.335Z,87.66
2023-04-02T10:59:08.320Z,88.11
2023-04-02T11:00:08.332Z,87.70
2023-04-02T11:01:09.336Z,88.59
2023-04-02T11:02:08.357Z,87.76
2023-04-02T11:03:08.609Z,88.48
2023-04-02T11:04:08.352Z,87.87
2023-04-02T11:05:08.279Z,87.30
2023-04-02T11:06:08.984Z,87.41
2023-04-02T11:07:14.424Z,86.47
2023-04-02T11:08:10.277Z,86.37
2023-04-02T11:09:08.252Z,87.20
2023-04-02T11:10:08.290Z,86.52
2023-04-02T11:11:08.260Z,86.41
2023-04-02T11:12:08.259Z,86.72
2023-04-02T11:13:08.408Z,86.41
2023-04-02T11:14:08.312Z,88.18
2023-04-02T11:15:08.251Z,86.62
2023-04-02T11:16:08.256Z,87.66
2023-04-02T11:17:08.272Z,87.30
2023-04-02T11:18:08.295Z,86.37
2023-04-02T11:19:08.191Z,86.47
2023-04-02T11:20:08.202Z,86.37
2023-04-02T11:21:08.222Z,86.52
2023-04-02T11:22:08.207Z,87.41
2023-04-02T11:23:08.184Z,86.58
2023-04-02T11:24:08.200Z,86.37
2023-04-02T11:25:08.175Z,85.38
2023-04-02T11:26:08.199Z,86.21
2023-04-02T11:27:08.149Z,86.31
2023-04-02T11:28:08.153Z,86.27
2023-04-02T11:29:08.173Z,85.48
2023-04-02T11:30:08.141Z,86.41
2023-04-02T11:31:08.226Z,86.52
2023-04-02T11:32:08.151Z,86.47
2023-04-02T11:33:08.116Z,86.07
2023-04-02T11:34:08.138Z,85.19
2023-04-02T11:35:08.178Z,84.68
2023-04-02T11:36:08.137Z,85.82
2023-04-02T11:37:08.137Z,85.13
2023-04-02T11:38:08.089Z,85.13
2023-04-02T11:39:16.930Z,84.20
2023-04-02T11:40:10.226Z,84.72
2023-04-02T11:41:08.075Z,85.03
2023-04-02T11:42:08.093Z,83.99
2023-04-02T11:43:08.153Z,84.09
2023-04-02T11:44:08.059Z,83.78
2023-04-02T11:45:08.117Z,82.17
2023-04-02T11:46:08.071Z,83.58
2023-04-02T11:47:08.060Z,84.44
2023-04-02T11:48:08.585Z,85.03
2023-04-02T11:49:08.036Z,84.41
2023-04-02T11:50:08.087Z,85.13
2023-04-02T11:51:08.017Z,83.78
2023-04-02T11:52:12.363Z,83.78
2023-04-02T11:53:09.033Z,83.58
2023-04-02T11:54:08.025Z,84.51
2023-04-02T11:55:07.994Z,84.30
2023-04-02T11:56:08.022Z,84.09
2023-04-02T11:57:08.048Z,83.89
2023-04-02T11:58:08.006Z,82.54
2023-04-02T11:59:08.008Z,83.37
2023-04-02T12:00:08.037Z,84.13
2023-04-02T12:01:08.019Z,82.75
2023-04-02T12:02:08.028Z,83.72
2023-04-02T12:03:08.020Z,83.20
2023-04-02T12:04:07.972Z,83.93
2023-04-02T12:05:08.048Z,84.23
2023-04-02T12:06:07.934Z,84.20
2023-04-02T12:07:08.000Z,84.82
2023-04-02T12:08:07.948Z,83.47
2023-04-02T12:09:07.946Z,83.78
2023-04-02T12:10:07.907Z,83.78
2023-04-02T12:11:07.908Z,84.09
2023-04-02T12:12:07.884Z,84.61
2023-04-02T12:13:07.961Z,84.88
2023-04-02T12:14:07.888Z,82.95
2023-04-02T12:15:07.937Z,81.44
2023-04-02T12:16:07.857Z,82.03
2023-04-02T12:17:09.817Z,81.71
2023-04-02T12:18:08.868Z,82.44
2023-04-02T12:19:07.941Z,81.54
2023-04-02T12:20:07.958Z,82.37
2023-04-02T12:21:07.852Z,81.65
2023-04-02T12:22:07.827Z,82.23
2023-04-02T12:23:07.900Z,81.40
2023-04-02T12:24:07.923Z,81.92
2023-04-02T12:25:07.837Z,82.27
2023-04-02T12:26:07.804Z,82.86
2023-04-02T12:27:07.814Z,82.86
2023-04-02T12:28:07.807Z,79.95
2023-04-02T12:29:07.803Z,80.05
2023-04-02T12:30:07.817Z,78.81
2023-04-02T12:31:07.811Z,79.78
2023-04-02T12:32:07.778Z,80.26
2023-04-02T12:33:08.235Z,80.16
2023-04-02T12:34:07.734Z,80.30
2023-04-02T12:35:07.957Z,78.44
2023-04-02T12:36:07.881Z,80.57
2023-04-02T12:37:07.779Z,80.19
2023-04-02T12:38:07.730Z,79.88
2023-04-02T12:39:07.708Z,80.19
2023-04-02T12:40:07.801Z,78.85
2023-04-02T12:41:07.767Z,80.47
2023-04-02T12:42:07.768Z,80.05
2023-04-02T12:43:07.702Z,79.74
2023-04-02T12:44:07.697Z,79.95
2023-04-02T12:45:07.702Z,80.26
2023-04-02T12:46:07.811Z,80.57
2023-04-02T12:47:08.025Z,80.26
2023-04-02T12:48:07.721Z,80.47
2023-04-02T12:49:07.682Z,80.26
2023-04-02T12:50:07.684Z,79.44
2023-04-02T12:51:07.686Z,78.71
2023-04-02T12:52:07.731Z,79.54
2023-04-02T12:53:08.627Z,79.13